Noble, Ohio
Current Conditions -  °F | °C
As of 5:45 PM on Saturday 25 Oct 2014 (Local Time) from KCGF Reporting Station
Haze Haze  
Wind Chill: 18°   Ceiling: Unl
Heat Index: 18°   Visibility: 6mi
Dew Point: 13°   Wind: 12mph
Humidity: 73%   Direction: 280°W
Pressure: 29.75"   Gusts: 21mph
Location:  41.6046°N, 81.5°W
Report Text: KCGF 252145Z 28010G18KT 6SM HZ SKC 18/13 A2975
Loading
Personal Weather Stations






























Interactive Weather Map
Tropical Storm Tracking
New forecast layout! Learn more

10-Day Weather Forecast

Advertisements
Track Severe Weather on mobile